Time;durP1;ratioP1;P1;durP2;ratioP2;P2;SDS_P1;SDS_P2;PMS_P1;PMS_P2;Temp;Humidity;BMP_temperature;BMP_pressure;BME280_temperature;BME280_humidity;BME280_pressure;Samples;Min_cycle;Max_cycle;Signal;HPM_P1;HPM_P2
2023/10/27 00:00:37;;;;;;;89.43;83.93;;;9.30;92.70;;;;;;5075020;28;20203;-86
2023/10/27 00:03:03;;;;;;;94.77;89.07;;;9.40;92.70;;;;;;5074960;28;20693;-86
2023/10/27 00:05:28;;;;;;;56.00;52.60;;;9.40;92.70;;;;;;5074918;28;20581;-85
2023/10/27 00:07:54;;;;;;;57.90;54.20;;;9.40;92.70;;;;;;5074795;28;20252;-86
2023/10/27 00:10:19;;;;;;;90.37;85.00;;;9.40;92.70;;;;;;5073751;28;20236;-86
2023/10/27 00:12:45;;;;;;;96.40;90.50;;;9.40;92.70;;;;;;5074898;28;20179;-86
2023/10/27 00:15:11;;;;;;;98.23;92.23;;;9.40;92.80;;;;;;5074623;28;20274;-86
2023/10/27 00:17:36;;;;;;;58.90;55.33;;;9.40;92.80;;;;;;5074620;28;20172;-86
2023/10/27 00:20:05;;;;;;;57.93;54.27;;;9.40;92.80;;;;;;5074924;28;20175;-86
2023/10/27 00:22:32;;;;;;;86.73;81.53;;;9.40;92.80;;;;;;5074580;28;20643;-87
2023/10/27 00:24:59;;;;;;;88.73;83.00;;;9.50;92.70;;;;;;5074612;28;20183;-87
2023/10/27 00:27:24;;;;;;;94.57;88.83;;;9.40;92.70;;;;;;5073408;28;20296;-86
2023/10/27 00:29:50;;;;;;;56.63;53.13;;;9.40;92.70;;;;;;5074445;28;20170;-86
2023/10/27 00:32:16;;;;;;;56.23;52.83;;;9.40;92.80;;;;;;5074512;28;20538;-86
2023/10/27 00:34:41;;;;;;;89.10;83.70;;;9.40;92.70;;;;;;5074434;28;20194;-86
2023/10/27 00:37:07;;;;;;;90.10;84.80;;;9.40;92.70;;;;;;5073348;28;20207;-86
2023/10/27 00:39:33;;;;;;;54.00;50.67;;;9.50;92.80;;;;;;5074574;28;20258;-86
2023/10/27 00:41:58;;;;;;;53.83;50.57;;;9.50;92.70;;;;;;5074349;28;20190;-86
2023/10/27 00:44:24;;;;;;;56.47;52.70;;;9.40;92.70;;;;;;5074387;28;20528;-86
2023/10/27 00:46:50;;;;;;;57.67;53.87;;;9.50;92.60;;;;;;5074203;28;20179;-86
2023/10/27 00:49:17;;;;;;;56.10;52.50;;;9.50;92.70;;;;;;5074121;28;20192;-86
2023/10/27 00:51:46;;;;;;;53.90;50.23;;;9.50;92.60;;;;;;5074041;28;20168;-86
2023/10/27 00:54:12;;;;;;;55.00;51.57;;;9.50;92.60;;;;;;5074242;28;20167;-86
2023/10/27 00:56:39;;;;;;;57.50;53.90;;;9.50;92.60;;;;;;5073896;28;20199;-87
2023/10/27 00:59:05;;;;;;;52.17;48.47;;;9.40;92.60;;;;;;5073880;28;20175;-86
2023/10/27 01:01:31;;;;;;;53.53;50.17;;;9.40;92.60;;;;;;5074288;28;20178;-86
2023/10/27 01:03:57;;;;;;;54.50;51.10;;;9.40;92.60;;;;;;5073985;28;20179;-86
2023/10/27 01:06:23;;;;;;;55.30;51.90;;;9.40;92.60;;;;;;5073969;28;20282;-86
2023/10/27 01:08:49;;;;;;;54.37;50.97;;;9.50;92.60;;;;;;5073834;28;20249;-87
2023/10/27 01:11:16;;;;;;;53.43;50.03;;;9.50;92.60;;;;;;5073204;28;20175;-86
2023/10/27 01:13:41;;;;;;;51.37;48.27;;;9.40;92.60;;;;;;5072463;28;20179;-86
2023/10/27 01:16:07;;;;;;;58.10;54.53;;;9.40;92.60;;;;;;5073879;28;20312;-86
2023/10/27 01:18:32;;;;;;;58.13;54.53;;;9.50;92.60;;;;;;5073701;28;20167;-86
2023/10/27 01:20:58;;;;;;;55.07;51.47;;;9.40;92.70;;;;;;5073878;28;20610;-87
2023/10/27 01:23:24;;;;;;;55.87;52.47;;;9.40;92.70;;;;;;5073623;28;20650;-86
2023/10/27 01:25:50;;;;;;;59.23;54.67;;;9.30;92.70;;;;;;5073605;28;20210;-86
2023/10/27 01:28:15;;;;;;;55.00;51.43;;;9.40;92.70;;;;;;5073685;28;20195;-86
2023/10/27 01:30:41;;;;;;;55.90;52.40;;;9.40;92.70;;;;;;5073802;28;20172;-87
2023/10/27 01:33:06;;;;;;;53.33;50.07;;;9.40;92.70;;;;;;5073972;28;20180;-86
2023/10/27 01:35:32;;;;;;;54.20;50.67;;;9.40;92.70;;;;;;5073500;28;20203;-86
2023/10/27 01:37:57;;;;;;;56.37;52.67;;;9.40;92.70;;;;;;5073603;28;20172;-86
2023/10/27 01:40:23;;;;;;;55.10;51.60;;;9.30;92.70;;;;;;5072381;28;20187;-86
2023/10/27 01:42:48;;;;;;;54.20;50.87;;;9.30;92.70;;;;;;5073913;28;20172;-86
2023/10/27 01:45:14;;;;;;;57.33;53.50;;;9.30;92.70;;;;;;5073715;28;20547;-87
2023/10/27 01:47:39;;;;;;;53.73;50.53;;;9.30;92.70;;;;;;5073485;28;20193;-86
2023/10/27 01:50:06;;;;;;;53.87;50.27;;;9.30;92.70;;;;;;5073426;28;20224;-86
2023/10/27 01:52:32;;;;;;;54.50;51.20;;;9.30;92.70;;;;;;5073442;28;20208;-87
2023/10/27 01:54:57;;;;;;;51.57;48.33;;;9.30;92.70;;;;;;5073378;28;20203;-86
2023/10/27 01:57:23;;;;;;;52.37;48.77;;;9.30;92.70;;;;;;5073305;28;20178;-86
2023/10/27 01:59:50;;;;;;;53.77;50.47;;;9.30;92.60;;;;;;5073287;28;20171;-86
2023/10/27 02:02:16;;;;;;;51.50;48.40;;;9.30;92.60;;;;;;5073433;28;20178;-86
2023/10/27 02:04:42;;;;;;;54.17;50.70;;;9.30;92.60;;;;;;5073173;28;20255;-86
2023/10/27 02:07:07;;;;;;;52.27;49.17;;;9.30;92.60;;;;;;5073519;28;20708;-86
2023/10/27 02:09:33;;;;;;;54.80;50.83;;;9.30;92.60;;;;;;5073119;28;20206;-86
2023/10/27 02:11:58;;;;;;;55.60;52.10;;;9.30;92.60;;;;;;5073246;28;20176;-86
2023/10/27 02:14:27;;;;;;;53.23;49.93;;;9.30;92.70;;;;;;5072973;28;20176;-86
2023/10/27 02:16:53;;;;;;;51.20;48.00;;;9.30;92.60;;;;;;5073071;28;20179;-86
2023/10/27 02:19:18;;;;;;;53.97;50.43;;;9.30;92.60;;;;;;5073119;28;20521;-87
2023/10/27 02:21:45;;;;;;;84.40;79.30;;;9.30;92.60;;;;;;5072981;28;20553;-86
2023/10/27 02:24:11;;;;;;;83.20;78.20;;;9.30;92.60;;;;;;5076952;28;20177;-86
2023/10/27 02:26:37;;;;;;;80.43;75.53;;;9.30;92.60;;;;;;5076506;28;20207;-86
2023/10/27 02:29:03;;;;;;;84.33;79.33;;;9.30;92.60;;;;;;5076887;28;20693;-87
2023/10/27 02:31:29;;;;;;;81.83;76.93;;;9.30;92.60;;;;;;5076751;28;20183;-87
2023/10/27 02:33:54;;;;;;;81.17;76.37;;;9.30;92.50;;;;;;5076828;28;20179;-86
2023/10/27 02:36:20;;;;;;;79.73;75.03;;;9.30;92.50;;;;;;5076732;28;20191;-87
2023/10/27 02:38:45;;;;;;;79.40;74.60;;;9.30;92.50;;;;;;5076826;28;20211;-87
2023/10/27 02:41:11;;;;;;;77.60;72.83;;;9.30;92.50;;;;;;5076465;28;20208;-86
2023/10/27 02:43:40;;;;;;;79.10;74.50;;;9.20;92.50;;;;;;5076680;28;20525;-87
2023/10/27 02:46:06;;;;;;;49.70;46.43;;;9.30;92.50;;;;;;5076392;28;20248;-86
2023/10/27 02:48:32;;;;;;;51.70;48.50;;;9.30;92.50;;;;;;5076621;28;20187;-87
2023/10/27 02:50:57;;;;;;;80.47;75.70;;;9.30;92.50;;;;;;5076683;28;20610;-86
2023/10/27 02:53:23;;;;;;;80.03;75.23;;;9.20;92.50;;;;;;5077095;28;20551;-86
2023/10/27 02:55:49;;;;;;;49.03;45.93;;;9.20;92.40;;;;;;5077168;28;20551;-87
2023/10/27 02:58:15;;;;;;;48.50;45.70;;;9.20;92.40;;;;;;5076791;28;20206;-86
2023/10/27 03:00:44;;;;;;;57.43;53.90;;;9.20;92.40;;;;;;5076473;28;20254;-86
2023/10/27 03:03:09;;;;;;;80.57;75.53;;;9.20;92.40;;;;;;5076486;28;20179;-86
2023/10/27 03:05:35;;;;;;;86.57;81.43;;;9.20;92.50;;;;;;5076275;28;20202;-86
2023/10/27 03:08:01;;;;;;;50.77;47.57;;;9.20;92.50;;;;;;5076182;28;20552;-86
2023/10/27 03:10:27;;;;;;;51.03;48.00;;;9.20;92.50;;;;;;5076718;28;20213;-86
2023/10/27 03:12:52;;;;;;;73.17;68.77;;;9.10;92.60;;;;;;5076408;28;20316;-86
2023/10/27 03:15:18;;;;;;;82.23;77.30;;;9.10;92.60;;;;;;5076412;28;20266;-86
2023/10/27 03:17:43;;;;;;;83.00;78.20;;;9.10;92.60;;;;;;5076690;28;20696;-86
2023/10/27 03:20:09;;;;;;;47.47;44.50;;;9.10;92.60;;;;;;5076133;28;20606;-86
2023/10/27 03:22:35;;;;;;;47.30;44.43;;;9.10;92.50;;;;;;5076178;28;20178;-87
2023/10/27 03:25:01;;;;;;;75.70;71.20;;;9.00;92.50;;;;;;5076133;28;20681;-86
2023/10/27 03:27:27;;;;;;;75.50;71.00;;;9.00;92.50;;;;;;5076375;28;20209;-86
2023/10/27 03:29:52;;;;;;;82.50;77.60;;;9.10;92.50;;;;;;5076155;28;20183;-86
2023/10/27 03:32:18;;;;;;;46.90;44.03;;;9.10;92.40;;;;;;5076018;28;20199;-87
2023/10/27 03:34:45;;;;;;;46.60;43.70;;;9.10;92.40;;;;;;5075520;28;20283;-86
2023/10/27 03:37:12;;;;;;;48.37;45.20;;;9.00;92.40;;;;;;5074661;28;20237;-86
2023/10/27 03:39:38;;;;;;;46.30;43.40;;;9.00;92.30;;;;;;5075964;28;20171;-86
2023/10/27 03:42:04;;;;;;;46.33;43.53;;;9.00;92.30;;;;;;5075692;28;20697;-86
2023/10/27 03:44:30;;;;;;;42.57;39.47;;;9.00;92.30;;;;;;5075857;28;20199;-86
2023/10/27 03:46:55;;;;;;;47.63;44.80;;;9.00;92.30;;;;;;5075565;28;20182;-86
2023/10/27 03:49:21;;;;;;;47.40;44.50;;;9.00;92.30;;;;;;5075667;28;20202;-87
2023/10/27 03:51:46;;;;;;;48.53;45.33;;;9.00;92.30;;;;;;5076015;28;20202;-86
2023/10/27 03:54:12;;;;;;;49.60;46.37;;;9.00;92.30;;;;;;5075590;28;20651;-86
2023/10/27 03:56:37;;;;;;;49.97;46.77;;;9.10;92.40;;;;;;5075492;28;20191;-87
2023/10/27 03:59:03;;;;;;;50.83;47.73;;;9.00;92.40;;;;;;5075722;28;20707;-86
2023/10/27 04:01:28;;;;;;;49.70;46.67;;;9.00;92.50;;;;;;5075463;28;20213;-86
2023/10/27 04:03:54;;;;;;;51.93;48.73;;;9.00;92.50;;;;;;5075608;28;20194;-87
2023/10/27 04:06:21;;;;;;;49.43;46.23;;;9.00;92.50;;;;;;5075324;28;20206;-86
2023/10/27 04:08:47;;;;;;;55.13;51.73;;;9.00;92.50;;;;;;5074866;28;20199;-87
2023/10/27 04:11:12;;;;;;;52.93;49.60;;;9.10;92.50;;;;;;5075328;28;20584;-86
2023/10/27 04:13:38;;;;;;;53.63;50.20;;;9.00;92.60;;;;;;5075385;28;20647;-86
2023/10/27 04:16:04;;;;;;;50.70;47.70;;;9.00;92.60;;;;;;5075091;28;20199;-86
2023/10/27 04:18:30;;;;;;;49.90;46.73;;;9.00;92.50;;;;;;5075302;28;20171;-87
2023/10/27 04:20:56;;;;;;;50.00;46.60;;;9.00;92.50;;;;;;5075142;28;20179;-86
2023/10/27 04:23:21;;;;;;;50.03;46.93;;;9.00;92.40;;;;;;5075197;28;20178;-86
2023/10/27 04:25:47;;;;;;;47.00;44.00;;;9.00;92.40;;;;;;5074810;28;20211;-86
2023/10/27 04:28:13;;;;;;;51.97;48.80;;;9.00;92.40;;;;;;5074732;28;20274;-86
2023/10/27 04:30:39;;;;;;;49.90;47.00;;;9.00;92.40;;;;;;5074954;28;20170;-87
2023/10/27 04:33:05;;;;;;;52.23;48.93;;;9.00;92.30;;;;;;5074853;28;20171;-86
2023/10/27 04:35:31;;;;;;;51.50;47.97;;;9.00;92.30;;;;;;5074843;28;20183;-86
2023/10/27 04:37:58;;;;;;;52.97;49.67;;;9.00;92.20;;;;;;5074649;28;20178;-87
2023/10/27 04:40:25;;;;;;;47.83;44.73;;;9.00;92.20;;;;;;5074847;28;20182;-87
2023/10/27 04:42:51;;;;;;;49.27;46.37;;;9.00;92.20;;;;;;5075402;28;20199;-86
2023/10/27 04:45:17;;;;;;;50.03;47.00;;;9.00;92.10;;;;;;5074135;28;20278;-86
2023/10/27 04:47:43;;;;;;;47.47;44.47;;;9.00;92.10;;;;;;5074401;28;20666;-87
2023/10/27 04:50:09;;;;;;;48.00;44.97;;;9.00;92.00;;;;;;5074685;28;20563;-86
2023/10/27 04:52:35;;;;;;;50.73;47.53;;;9.00;92.00;;;;;;5074641;28;20167;-86
2023/10/27 04:55:00;;;;;;;51.03;47.83;;;9.00;92.10;;;;;;5074534;28;20187;-86
2023/10/27 04:57:26;;;;;;;52.97;49.37;;;9.00;92.10;;;;;;5074337;28;20247;-87
2023/10/27 04:59:51;;;;;;;52.63;49.13;;;9.00;92.20;;;;;;5074994;28;20719;-85
2023/10/27 05:02:17;;;;;;;51.90;48.60;;;9.00;92.20;;;;;;5072924;28;20543;-87
2023/10/27 05:04:43;;;;;;;52.03;48.80;;;9.00;92.20;;;;;;5074446;28;20211;-87
2023/10/27 05:07:10;;;;;;;54.83;51.47;;;9.00;92.30;;;;;;5074373;28;20583;-87
2023/10/27 05:09:35;;;;;;;87.30;81.90;;;8.90;92.40;;;;;;5074487;28;20288;-87
2023/10/27 05:12:02;;;;;;;89.07;83.77;;;8.90;92.40;;;;;;5074331;28;20167;-87
2023/10/27 05:14:28;;;;;;;89.33;83.53;;;8.90;92.50;;;;;;5074325;28;20166;-87
2023/10/27 05:16:53;;;;;;;90.83;85.23;;;8.90;92.60;;;;;;5074373;28;20176;-87
2023/10/27 05:19:19;;;;;;;89.40;84.00;;;8.90;92.60;;;;;;5074421;28;20167;-87
2023/10/27 05:21:44;;;;;;;89.37;83.97;;;8.80;92.60;;;;;;5074235;28;20174;-87
2023/10/27 05:24:11;;;;;;;90.43;84.83;;;8.80;92.60;;;;;;5074094;28;20217;-87
2023/10/27 05:26:36;;;;;;;89.63;84.23;;;8.80;92.70;;;;;;5074030;28;20207;-87
2023/10/27 05:29:02;;;;;;;90.67;84.97;;;8.80;92.70;;;;;;5074003;28;20656;-86
2023/10/27 05:31:28;;;;;;;89.03;83.73;;;8.80;92.70;;;;;;5074205;28;20206;-86
2023/10/27 05:33:54;;;;;;;76.60;71.90;;;8.80;92.70;;;;;;5073886;28;20176;-87
2023/10/27 05:36:20;;;;;;;56.73;52.80;;;8.80;92.80;;;;;;5074250;28;20191;-87
2023/10/27 05:38:46;;;;;;;55.27;51.97;;;8.80;92.70;;;;;;5074113;28;20175;-87
2023/10/27 05:41:11;;;;;;;85.27;79.97;;;8.80;92.70;;;;;;5074176;28;20179;-86
2023/10/27 05:43:37;;;;;;;87.00;81.63;;;8.80;92.70;;;;;;5073999;28;20186;-86
2023/10/27 05:46:02;;;;;;;57.63;54.07;;;8.80;92.70;;;;;;5073648;28;20255;-87
2023/10/27 05:48:28;;;;;;;51.30;48.20;;;8.80;92.70;;;;;;5074281;28;20273;-86
2023/10/27 05:50:53;;;;;;;76.27;71.63;;;8.80;92.70;;;;;;5073971;28;20584;-86
2023/10/27 05:53:19;;;;;;;79.87;75.07;;;8.80;92.70;;;;;;5074148;28;20171;-86
2023/10/27 05:55:45;;;;;;;86.13;81.13;;;8.80;92.70;;;;;;5073875;28;20187;-86
2023/10/27 05:58:10;;;;;;;56.20;52.77;;;8.80;92.70;;;;;;5077667;28;20175;-86
2023/10/27 06:00:36;;;;;;;55.67;52.13;;;8.80;92.70;;;;;;5076465;28;20186;-86
2023/10/27 06:03:03;;;;;;;84.83;79.73;;;8.80;92.70;;;;;;5076742;28;20186;-86
2023/10/27 06:05:29;;;;;;;88.40;82.80;;;8.80;92.70;;;;;;5077963;28;20187;-86
2023/10/27 06:07:54;;;;;;;97.27;91.47;;;8.70;92.80;;;;;;5077773;28;20233;-88
2023/10/27 06:10:20;;;;;;;60.20;56.40;;;8.70;92.80;;;;;;5077965;28;20175;-86
2023/10/27 06:12:45;;;;;;;60.50;56.90;;;8.80;92.90;;;;;;5077876;28;20193;-86
2023/10/27 06:15:11;;;;;;;71.93;67.50;;;8.70;93.00;;;;;;5077448;28;20190;-87
2023/10/27 06:17:36;;;;;;;77.33;72.73;;;8.70;93.10;;;;;;5077535;28;20200;-86
2023/10/27 06:20:02;;;;;;;75.53;71.00;;;8.70;93.20;;;;;;5077505;28;20700;-86
2023/10/27 06:22:29;;;;;;;60.23;56.60;;;8.70;93.30;;;;;;5076197;28;20547;-86
2023/10/27 06:24:54;;;;;;;60.83;57.07;;;8.70;93.40;;;;;;5077318;28;20241;-89
2023/10/27 06:27:20;;;;;;;98.23;92.33;;;8.70;93.40;;;;;;5077756;28;20168;-86
2023/10/27 06:29:45;;;;;;;98.13;92.13;;;8.70;93.40;;;;;;5077541;28;20199;-86
2023/10/27 06:32:11;;;;;;;101.83;95.73;;;8.70;93.50;;;;;;5077502;28;20179;-86
2023/10/27 06:34:37;;;;;;;68.40;64.30;;;8.70;93.50;;;;;;5077042;28;20168;-86
2023/10/27 06:37:03;;;;;;;65.47;61.47;;;8.70;93.60;;;;;;5077289;28;20163;-87
2023/10/27 06:39:29;;;;;;;69.90;65.40;;;8.70;93.60;;;;;;5076740;28;20171;-86
2023/10/27 06:41:54;;;;;;;71.67;67.07;;;8.70;93.70;;;;;;5076965;28;20228;-86
2023/10/27 06:44:20;;;;;;;69.17;64.73;;;8.70;93.70;;;;;;5076928;28;20179;-86
2023/10/27 06:46:45;;;;;;;68.33;64.13;;;8.70;93.80;;;;;;5076782;28;20179;-86
2023/10/27 06:49:13;;;;;;;72.37;67.77;;;8.70;93.80;;;;;;5076869;28;20282;-86
2023/10/27 06:51:38;;;;;;;70.70;66.43;;;8.70;93.80;;;;;;5076928;28;20221;-86
2023/10/27 06:54:04;;;;;;;69.47;65.20;;;8.70;93.90;;;;;;5076443;28;20171;-86
2023/10/27 06:56:29;;;;;;;71.40;66.87;;;8.70;93.90;;;;;;5076550;28;20557;-86
2023/10/27 06:58:55;;;;;;;71.13;66.57;;;8.70;93.90;;;;;;5076784;28;20175;-87
2023/10/27 07:01:20;;;;;;;77.70;73.10;;;8.70;94.00;;;;;;5076768;28;20203;-87
2023/10/27 07:03:46;;;;;;;80.37;75.43;;;8.70;94.00;;;;;;5076492;28;20170;-88
2023/10/27 07:06:12;;;;;;;80.47;75.07;;;8.70;94.00;;;;;;5076710;28;20210;-87
2023/10/27 07:08:38;;;;;;;83.30;78.20;;;8.70;94.10;;;;;;5074318;28;20598;-87
2023/10/27 07:11:04;;;;;;;79.60;74.70;;;8.70;94.10;;;;;;5076965;28;20167;-87
2023/10/27 07:13:30;;;;;;;79.97;75.17;;;8.70;94.10;;;;;;5076469;28;20250;-88
2023/10/27 07:15:56;;;;;;;80.00;75.20;;;8.70;94.10;;;;;;5076578;28;20225;-86
2023/10/27 07:18:22;;;;;;;77.63;72.53;;;8.70;94.20;;;;;;5075001;28;20667;-87
2023/10/27 07:20:48;;;;;;;79.13;74.20;;;8.70;94.10;;;;;;5076852;28;20179;-87
2023/10/27 07:23:15;;;;;;;78.87;73.90;;;8.70;94.10;;;;;;5076478;28;20186;-87
2023/10/27 07:25:41;;;;;;;80.43;75.10;;;8.70;94.10;;;;;;5076286;28;20276;-87
2023/10/27 07:28:08;;;;;;;80.60;75.73;;;8.70;94.20;;;;;;5076174;28;20237;-87
2023/10/27 07:30:33;;;;;;;79.73;74.37;;;8.70;94.20;;;;;;5076185;28;20631;-87
2023/10/27 07:32:59;;;;;;;78.03;73.03;;;8.70;94.10;;;;;;5076127;28;20178;-87
2023/10/27 07:35:24;;;;;;;79.90;75.10;;;8.80;94.20;;;;;;5075823;28;20266;-87
2023/10/27 07:37:50;;;;;;;81.07;75.97;;;8.70;94.20;;;;;;5075866;28;20562;-87
2023/10/27 07:40:15;;;;;;;77.10;72.20;;;8.70;94.20;;;;;;5075995;28;20225;-87
2023/10/27 07:42:41;;;;;;;82.77;77.57;;;8.80;94.20;;;;;;5076173;28;20229;-87
2023/10/27 07:45:07;;;;;;;78.67;73.43;;;8.80;94.20;;;;;;5074696;28;20686;-87
2023/10/27 07:47:33;;;;;;;81.50;76.30;;;8.80;94.20;;;;;;5076412;28;20245;-88
2023/10/27 07:50:00;;;;;;;81.47;76.20;;;8.80;94.20;;;;;;5076332;28;20185;-88
2023/10/27 07:52:27;;;;;;;78.83;73.73;;;8.80;94.20;;;;;;5075091;28;20701;-87
2023/10/27 07:54:53;;;;;;;80.57;75.40;;;8.80;94.20;;;;;;5076511;28;20199;-88
2023/10/27 07:57:19;;;;;;;80.80;75.83;;;8.80;94.20;;;;;;5076089;28;20623;-88
2023/10/27 07:59:45;;;;;;;82.07;77.00;;;8.80;94.20;;;;;;5075883;28;20195;-87
2023/10/27 08:02:11;;;;;;;83.57;78.17;;;8.80;94.20;;;;;;5076441;28;20171;-88
2023/10/27 08:04:37;;;;;;;107.20;100.70;;;8.80;94.20;;;;;;5076037;28;20708;-88
2023/10/27 08:07:03;;;;;;;93.37;87.77;;;8.80;94.20;;;;;;5076312;28;20176;-88
2023/10/27 08:09:29;;;;;;;94.93;89.23;;;8.80;94.10;;;;;;5076172;28;20222;-88
2023/10/27 08:11:55;;;;;;;90.67;85.23;;;8.80;94.10;;;;;;5074466;28;20228;-87
2023/10/27 08:14:21;;;;;;;93.47;87.63;;;8.80;94.00;;;;;;5076129;28;20176;-87
2023/10/27 08:16:46;;;;;;;96.00;90.10;;;8.80;94.00;;;;;;5074474;28;20179;-88
2023/10/27 08:19:12;;;;;;;92.30;86.50;;;8.90;94.00;;;;;;5076177;28;20172;-87
2023/10/27 08:21:38;;;;;;;93.17;87.57;;;8.90;94.00;;;;;;5076369;28;20180;-87
2023/10/27 08:24:06;;;;;;;91.10;85.50;;;8.90;94.00;;;;;;5075985;28;20172;-87
2023/10/27 08:26:31;;;;;;;90.53;84.97;;;8.90;94.00;;;;;;5075772;28;20245;-87
2023/10/27 08:28:57;;;;;;;87.47;82.27;;;8.90;93.90;;;;;;5076034;28;20231;-86
2023/10/27 08:31:22;;;;;;;84.87;79.77;;;9.00;93.90;;;;;;5075666;28;20175;-88
2023/10/27 08:33:48;;;;;;;63.00;58.93;;;8.90;93.80;;;;;;5075407;28;20203;-87
2023/10/27 08:36:15;;;;;;;62.83;58.97;;;8.90;93.80;;;;;;5075660;28;20195;-87
2023/10/27 08:38:41;;;;;;;78.13;73.43;;;8.90;93.70;;;;;;5075188;28;20249;-87
2023/10/27 08:41:07;;;;;;;92.40;86.73;;;9.00;93.60;;;;;;5075972;28;20277;-88
2023/10/27 08:43:34;;;;;;;64.00;60.10;;;8.90;93.50;;;;;;5075764;28;20635;-87
2023/10/27 08:46:05;;;;;;;59.90;56.30;;;9.00;93.50;;;;;;5074901;28;20603;-87
2023/10/27 08:48:32;;;;;;;62.80;58.90;;;9.00;93.40;;;;;;5075362;28;20646;-88
2023/10/27 08:51:04;;;;;;;65.60;61.70;;;9.00;93.40;;;;;;5074984;28;20654;-87
2023/10/27 08:53:30;;;;;;;63.07;59.07;;;9.00;93.40;;;;;;5075203;28;20152;-87
2023/10/27 08:55:56;;;;;;;65.77;61.43;;;9.00;93.30;;;;;;5074975;28;20183;-87
2023/10/27 08:58:23;;;;;;;61.43;57.57;;;9.10;93.40;;;;;;5075277;28;20179;-90
2023/10/27 09:00:48;;;;;;;59.60;55.90;;;9.00;93.30;;;;;;5073013;28;20175;-87
2023/10/27 09:03:18;;;;;;;61.97;58.27;;;9.00;93.10;;;;;;5075720;28;20669;-86
2023/10/27 09:05:44;;;;;;;59.67;56.07;;;9.00;93.20;;;;;;5073789;28;20250;-88
2023/10/27 09:08:10;;;;;;;60.87;57.07;;;9.10;93.10;;;;;;5074646;28;20218;-87
2023/10/27 09:10:37;;;;;;;64.13;60.23;;;9.10;93.10;;;;;;5074638;28;20586;-87
2023/10/27 09:13:05;;;;;;;62.03;58.33;;;9.10;93.10;;;;;;5074333;28;20192;-87
2023/10/27 09:15:42;;;;;;;60.20;56.60;;;9.20;93.00;;;;;;5074052;28;20195;-87
2023/10/27 09:18:08;;;;;;;56.43;52.93;;;9.20;93.00;;;;;;5074261;28;20171;-87
2023/10/27 09:20:49;;;;;;;55.77;52.40;;;9.10;92.90;;;;;;5075688;28;20167;-86
2023/10/27 09:23:15;;;;;;;56.90;53.43;;;9.20;92.90;;;;;;5075320;28;20156;-87
2023/10/27 09:25:40;;;;;;;52.97;49.77;;;9.20;92.90;;;;;;5075902;28;20210;-87
2023/10/27 09:28:06;;;;;;;55.60;51.97;;;9.20;92.80;;;;;;5076002;28;20195;-87
2023/10/27 09:30:34;;;;;;;51.47;48.37;;;9.20;92.70;;;;;;5076169;28;20259;-88
2023/10/27 09:33:21;;;;;;;56.63;53.07;;;9.20;92.70;;;;;;5076386;28;20171;-87
2023/10/27 09:35:48;;;;;;;53.13;49.87;;;9.20;92.70;;;;;;5076499;28;20190;-86
2023/10/27 09:38:15;;;;;;;53.53;50.17;;;9.20;92.60;;;;;;5076237;28;20249;-86
2023/10/27 09:40:42;;;;;;;55.27;51.97;;;9.20;92.50;;;;;;5076122;28;20666;-87
2023/10/27 09:43:28;;;;;;;58.30;54.67;;;9.30;92.50;;;;;;5075777;28;20661;-87
2023/10/27 09:46:04;;;;;;;55.33;51.47;;;9.30;92.60;;;;;;5075806;28;20228;-86
2023/10/27 09:48:30;;;;;;;56.73;53.33;;;9.30;92.50;;;;;;5075064;28;20191;-89
2023/10/27 09:51:02;;;;;;;56.80;53.20;;;9.30;92.50;;;;;;5072092;28;20178;-90
2023/10/27 09:53:31;;;;;;;55.00;51.70;;;9.30;92.50;;;;;;5071996;28;20631;-90
2023/10/27 09:55:58;;;;;;;56.10;52.60;;;9.30;92.50;;;;;;5072881;28;20598;-85
2023/10/27 09:58:33;;;;;;;54.30;50.90;;;9.30;92.40;;;;;;5074095;28;20183;-86
2023/10/27 10:01:00;;;;;;;81.40;76.50;;;9.30;92.40;;;;;;5073881;28;20182;-85
2023/10/27 10:03:29;;;;;;;82.43;77.43;;;9.30;92.40;;;;;;5073865;28;20172;-86
2023/10/27 10:06:11;;;;;;;84.77;79.50;;;9.40;92.50;;;;;;5073584;28;20191;-86
2023/10/27 10:08:37;;;;;;;79.90;75.10;;;9.40;92.50;;;;;;5073454;28;20198;-86
2023/10/27 10:11:16;;;;;;;51.37;48.27;;;9.40;92.40;;;;;;5072101;28;20171;-86
2023/10/27 10:13:42;;;;;;;55.90;52.43;;;9.40;92.30;;;;;;5073218;28;20167;-90
2023/10/27 10:16:11;;;;;;;80.53;75.70;;;9.40;92.30;;;;;;5071840;28;20209;-86
2023/10/27 10:18:36;;;;;;;83.83;78.67;;;9.40;92.40;;;;;;5073058;28;20225;-86
2023/10/27 10:21:02;;;;;;;78.17;73.37;;;9.50;92.40;;;;;;5073656;28;20171;-86
2023/10/27 10:23:37;;;;;;;59.37;55.43;;;9.40;92.30;;;;;;5074755;28;20550;-87
2023/10/27 10:26:02;;;;;;;54.87;51.53;;;9.50;92.40;;;;;;5075003;28;20210;-87
2023/10/27 10:28:36;;;;;;;79.50;74.77;;;9.40;92.30;;;;;;5074581;28;20205;-87
2023/10/27 10:31:11;;;;;;;83.17;77.97;;;9.40;92.30;;;;;;5074516;28;20152;-87
2023/10/27 10:33:45;;;;;;;90.10;84.70;;;9.40;92.40;;;;;;5074526;28;20175;-87
2023/10/27 10:36:11;;;;;;;57.50;53.97;;;9.50;92.40;;;;;;5074093;28;20255;-87
2023/10/27 10:38:38;;;;;;;60.97;57.17;;;9.50;92.50;;;;;;5072814;28;20229;-87
2023/10/27 10:41:04;;;;;;;81.07;76.17;;;9.50;92.50;;;;;;5075696;28;20179;-87
2023/10/27 10:43:34;;;;;;;78.27;73.57;;;9.40;92.40;;;;;;5076395;28;20171;-87
2023/10/27 10:46:03;;;;;;;66.97;62.47;;;9.40;92.40;;;;;;5077875;28;20195;-86
2023/10/27 10:48:33;;;;;;;62.17;58.47;;;9.40;92.30;;;;;;5077931;28;20221;-87
2023/10/27 10:51:04;;;;;;;60.43;56.73;;;9.40;92.40;;;;;;5078178;28;20524;-86
2023/10/27 10:53:33;;;;;;;89.40;84.00;;;9.40;92.40;;;;;;5078517;28;20202;-87
2023/10/27 10:56:00;;;;;;;89.17;83.97;;;9.40;92.50;;;;;;5077296;28;20269;-86
2023/10/27 10:58:31;;;;;;;63.47;59.57;;;9.40;92.60;;;;;;5077325;28;20172;-87
2023/10/27 11:00:58;;;;;;;57.70;54.20;;;9.50;92.70;;;;;;5077260;28;20308;-87
2023/10/27 11:03:28;;;;;;;60.97;57.30;;;9.40;92.60;;;;;;5077356;28;20175;-87
2023/10/27 11:05:59;;;;;;;60.17;56.53;;;9.50;92.70;;;;;;5077621;28;20323;-87
2023/10/27 11:08:26;;;;;;;60.40;56.80;;;9.50;92.70;;;;;;5084409;28;20191;-93
2023/10/27 11:11:09;;;;;;;58.60;55.10;;;9.50;92.80;;;;;;5093624;28;20237;-93
2023/10/27 11:13:43;;;;;;;57.83;54.33;;;9.60;92.80;;;;;;5092611;28;20167;-92
2023/10/27 11:16:21;;;;;;;56.57;53.00;;;9.60;92.80;;;;;;5094491;28;20218;-94
2023/10/27 11:18:53;;;;;;;58.57;55.07;;;9.60;92.70;;;;;;5093169;28;20164;-91
2023/10/27 11:21:24;;;;;;;61.43;57.83;;;9.60;92.70;;;;;;5091030;28;20164;-93
2023/10/27 11:23:50;;;;;;;62.97;59.07;;;9.60;92.80;;;;;;5091630;28;20730;-93
2023/10/27 11:26:19;;;;;;;55.13;51.93;;;9.70;92.80;;;;;;5089866;28;20207;-93
2023/10/27 11:28:46;;;;;;;50.10;47.10;;;9.60;92.60;;;;;;5089231;28;20230;-93
2023/10/27 11:31:23;;;;;;;50.83;47.83;;;9.60;92.40;;;;;;5090309;28;20238;-93
2023/10/27 11:34:00;;;;;;;48.83;45.93;;;9.60;92.30;;;;;;5090174;28;20166;-93
2023/10/27 11:36:28;;;;;;;55.13;51.83;;;9.70;92.20;;;;;;5091764;28;20682;-93
2023/10/27 11:38:54;;;;;;;58.47;54.83;;;9.80;92.20;;;;;;5093450;28;20177;-93
2023/10/27 11:41:20;;;;;;;52.17;48.90;;;9.80;92.30;;;;;;5090842;28;20175;-93
2023/10/27 11:43:45;;;;;;;51.30;47.97;;;9.80;92.20;;;;;;5082028;28;20183;-93
2023/10/27 11:46:16;;;;;;;50.37;47.17;;;9.80;92.10;;;;;;5082872;28;20210;-92
2023/10/27 11:48:43;;;;;;;52.70;49.40;;;9.70;91.90;;;;;;5085408;28;20203;-93
2023/10/27 11:51:10;;;;;;;51.73;48.43;;;9.70;91.90;;;;;;5087104;28;20175;-93
2023/10/27 11:53:43;;;;;;;50.67;47.47;;;9.80;91.90;;;;;;5086232;28;20179;-93
2023/10/27 11:56:10;;;;;;;50.40;47.20;;;9.80;91.80;;;;;;5084487;28;20207;-93
2023/10/27 11:58:35;;;;;;;53.00;49.60;;;9.80;91.80;;;;;;5087610;28;20677;-95
2023/10/27 12:01:01;;;;;;;50.90;47.80;;;9.80;91.80;;;;;;5087049;28;20179;-92
2023/10/27 12:03:27;;;;;;;53.80;50.23;;;9.80;91.70;;;;;;5091236;28;20176;-93
2023/10/27 12:05:52;;;;;;;50.17;46.80;;;9.80;91.80;;;;;;5089295;28;20223;-94
2023/10/27 12:08:19;;;;;;;47.17;44.27;;;9.80;91.70;;;;;;5091582;28;20199;-93
2023/10/27 12:10:45;;;;;;;48.53;45.43;;;9.90;91.70;;;;;;5092109;28;20248;-94
2023/10/27 12:13:10;;;;;;;47.67;44.37;;;9.90;91.60;;;;;;5087511;28;20172;-92
2023/10/27 12:15:36;;;;;;;46.63;43.60;;;9.90;91.40;;;;;;5085227;28;20191;-93
2023/10/27 12:18:08;;;;;;;42.33;39.70;;;9.90;91.20;;;;;;5084243;28;20273;-93
2023/10/27 12:20:38;;;;;;;40.23;37.70;;;9.90;91.00;;;;;;5085708;28;20183;-94
2023/10/27 12:23:07;;;;;;;42.67;40.00;;;9.90;90.70;;;;;;5086415;28;20728;-92
2023/10/27 12:25:34;;;;;;;41.60;39.00;;;9.90;90.60;;;;;;5084545;28;20226;-93
2023/10/27 12:27:59;;;;;;;40.00;37.40;;;9.90;90.50;;;;;;5086165;28;20199;-93
2023/10/27 12:30:25;;;;;;;46.57;43.47;;;9.90;90.50;;;;;;5088077;28;20172;-93
2023/10/27 12:32:53;;;;;;;42.13;39.53;;;10.00;90.50;;;;;;5088706;28;20201;-93